»·PEaware :: N424TS KLBF-KMSN

N424TS :: KLBF-KMSN

FLIGHT INFORMATION

Flight Status: Arrived
Operator: Privately registered:
United States
More flights under this callsign
Pilot: Matthew M. (8235)
Aircraft: Diamond DA-62
(DA62)
More flights by this aircraft type
Origin: KLBF North Platte Regl-Bird
United States
Destination: KMSN Dane Co Regl-Truax
United States
More flights between these airports :: More routes between these airports
Route: OBH J128 DBQ
File this flight plan on PilotEdge
Remarks:
Altitude:
(Current/Filed)
15,000ft
Speed:
(Current/Filed)
230kts
Departed: 07-Jul-20 05:14 AM
Arrived: 07-Jul-20 08:11 AM
Distance/Time
Traveled:
519nm/2:56
Distance/Time
To Go:
Arrived

Flight Plot

Page will automatically refresh every two minutes.

Flight plan parsing failed; only flown route is shown


Map Options




Map Legend


Flown Route
Filed Route
Departure Airport
Arrival Airport
Navaid (VOR, NDB)
Fix

Horizontal Profiles

Position Reports

Time Latitude Longitude Heading Altitude Ground
Speed
07-Jul-20 05:04 41.132023 -100.696922 89 2777ft 0kts
07-Jul-20 05:05 41.132023 -100.696922 89 2777ft 0kts
07-Jul-20 05:06 41.132023 -100.696922 89 2777ft 0kts
07-Jul-20 05:07 41.132023 -100.696922 89 2777ft 0kts
07-Jul-20 05:08 41.132023 -100.696922 89 2777ft 0kts
07-Jul-20 05:09 41.132018 -100.696799 102 2777ft 4kts
07-Jul-20 05:10 41.131119 -100.694302 89 2776ft 9kts
07-Jul-20 05:11 41.131532 -100.690698 35 2774ft 0kts
07-Jul-20 05:12 41.131532 -100.690698 35 2774ft 0kts
07-Jul-20 05:13 41.130483 -100.686966 126 2773ft 50kts
07-Jul-20 05:14 41.121613 -100.657239 68 3424ft 110kts
07-Jul-20 05:15 41.133651 -100.619918 83 4282ft 125kts
07-Jul-20 05:16 41.139364 -100.572012 85 5024ft 134kts
07-Jul-20 05:17 41.145053 -100.522686 83 5806ft 137kts
07-Jul-20 05:18 41.150943 -100.472675 86 6591ft 141kts
07-Jul-20 05:19 41.156949 -100.420627 85 7387ft 145kts
07-Jul-20 05:20 41.163064 -100.367007 86 8177ft 149kts
07-Jul-20 05:21 41.169343 -100.312513 86 8955ft 152kts
07-Jul-20 05:22 41.175715 -100.256350 85 9747ft 156kts
07-Jul-20 05:23 41.182233 -100.198828 84 10538ft 159kts
07-Jul-20 05:24 41.188855 -100.140121 83 11331ft 162kts
07-Jul-20 05:25 41.195558 -100.080524 82 12125ft 164kts
07-Jul-20 05:26 41.202351 -100.020214 82 12920ft 166kts
07-Jul-20 05:27 41.209372 -99.957420 82 13502ft 178kts
07-Jul-20 05:28 41.216745 -99.890920 82 14008ft 184kts
07-Jul-20 05:29 41.224246 -99.822815 82 14510ft 187kts
07-Jul-20 05:30 41.231804 -99.753783 82 14995ft 190kts
07-Jul-20 05:31 41.239765 -99.680659 82 15020ft 207kts
07-Jul-20 05:32 41.248095 -99.603731 82 15019ft 211kts
07-Jul-20 05:33 41.256430 -99.526211 82 15019ft 212kts
07-Jul-20 05:34 41.264628 -99.449473 82 15267ft 202kts
07-Jul-20 05:35 41.272330 -99.376969 82 15764ft 195kts
07-Jul-20 05:36 41.279804 -99.306041 83 16256ft 194kts
07-Jul-20 05:37 41.287233 -99.235107 83 16744ft 193kts
07-Jul-20 05:38 41.294665 -99.163663 83 17002ft 203kts
07-Jul-20 05:39 41.302606 -99.087060 83 17000ft 212kts
07-Jul-20 05:40 41.310655 -99.008861 83 16999ft 214kts
07-Jul-20 05:41 41.318610 -98.930995 83 16997ft 207kts
07-Jul-20 05:42 41.326142 -98.856705 83 16999ft 200kts
07-Jul-20 05:43 41.333488 -98.783798 83 17003ft 197kts
07-Jul-20 05:44 41.340718 -98.711591 83 17007ft 197kts
07-Jul-20 05:45 41.347919 -98.639194 83 17010ft 197kts
07-Jul-20 05:46 41.355075 -98.566815 83 17010ft 197kts
07-Jul-20 05:47 41.362190 -98.494386 83 17009ft 197kts
07-Jul-20 05:48 41.369243 -98.422052 83 17009ft 197kts
07-Jul-20 05:49 41.376794 -98.349598 79 17009ft 197kts
07-Jul-20 05:50 41.388642 -98.278438 78 17005ft 197kts
07-Jul-20 05:51 41.400673 -98.207124 78 17003ft 197kts
07-Jul-20 05:52 41.412650 -98.135923 78 17002ft 197kts
07-Jul-20 05:53 41.424599 -98.064606 78 17001ft 197kts
07-Jul-20 05:54 41.436511 -97.993205 78 17000ft 197kts
07-Jul-20 05:55 41.448374 -97.921846 78 16999ft 197kts
07-Jul-20 05:56 41.460210 -97.850326 78 17002ft 197kts
07-Jul-20 05:57 41.471976 -97.778941 78 17005ft 197kts
07-Jul-20 05:58 41.483706 -97.707480 78 17008ft 197kts
07-Jul-20 05:59 41.495387 -97.636039 78 17009ft 197kts
07-Jul-20 06:00 41.507067 -97.564284 78 17010ft 198kts
07-Jul-20 06:01 41.518673 -97.492685 78 17010ft 198kts
07-Jul-20 06:02 41.530264 -97.420894 78 17010ft 198kts
07-Jul-20 06:03 41.541727 -97.349589 79 17010ft 198kts
07-Jul-20 06:04 41.553194 -97.277974 79 17008ft 197kts
07-Jul-20 06:05 41.564581 -97.206523 79 17008ft 197kts
07-Jul-20 06:06 41.575923 -97.135028 79 17008ft 197kts
07-Jul-20 06:07 41.587190 -97.063754 78 17009ft 196kts
07-Jul-20 06:08 41.598380 -96.992661 78 17009ft 195kts
07-Jul-20 06:09 41.609489 -96.921813 78 17004ft 194kts
07-Jul-20 06:10 41.620504 -96.851238 78 16995ft 194kts
07-Jul-20 06:11 41.631501 -96.780457 78 16987ft 194kts
07-Jul-20 06:12 41.642445 -96.709726 78 16982ft 194kts
07-Jul-20 06:13 41.653331 -96.639060 78 16979ft 194kts
07-Jul-20 06:14 41.664178 -96.568346 78 16976ft 194kts
07-Jul-20 06:15 41.674977 -96.497641 78 16971ft 194kts
07-Jul-20 06:16 41.685749 -96.426795 78 16965ft 194kts
07-Jul-20 06:17 41.696487 -96.355866 78 16961ft 194kts
07-Jul-20 06:19 41.707138 -96.285218 79 16956ft 193kts
07-Jul-20 06:20 41.717739 -96.214577 79 16953ft 193kts
07-Jul-20 06:21 41.728256 -96.144179 79 16954ft 193kts
07-Jul-20 06:22 41.738779 -96.073444 79 16955ft 193kts
07-Jul-20 06:23 41.749232 -96.002853 79 16955ft 193kts
07-Jul-20 06:24 41.759672 -95.932034 79 17147ft 191kts
07-Jul-20 06:25 41.769746 -95.863357 79 17637ft 185kts
07-Jul-20 06:26 41.779567 -95.796147 79 18135ft 182kts
07-Jul-20 06:27 41.789189 -95.729998 79 18633ft 180kts
07-Jul-20 06:28 41.798738 -95.664071 79 19087ft 182kts
07-Jul-20 06:29 41.808827 -95.594146 79 19098ft 198kts
07-Jul-20 06:30 41.819422 -95.520421 79 19094ft 204kts
07-Jul-20 06:31 41.830029 -95.446162 79 19094ft 200kts
07-Jul-20 06:32 41.840408 -95.373154 79 19096ft 199kts
07-Jul-20 06:33 41.850721 -95.300298 79 19097ft 198kts
07-Jul-20 06:34 41.860953 -95.227641 79 19097ft 198kts
07-Jul-20 06:35 41.871151 -95.154873 79 19096ft 198kts
07-Jul-20 06:36 41.881279 -95.082259 79 19094ft 198kts
07-Jul-20 06:36 41.889720 -95.021478 79 19090ft 199kts
07-Jul-20 06:38 41.901539 -94.935860 79 19085ft 200kts
07-Jul-20 06:38 41.909976 -94.874504 79 19080ft 201kts
07-Jul-20 06:40 41.921838 -94.787786 78 19073ft 203kts
07-Jul-20 06:41 41.932039 -94.712927 78 19073ft 204kts
07-Jul-20 06:41 41.940504 -94.650453 78 19074ft 204kts
07-Jul-20 06:43 41.952267 -94.563149 78 19074ft 204kts
07-Jul-20 06:43 41.960672 -94.500447 78 19076ft 204kts
07-Jul-20 06:44 41.970670 -94.425505 78 19079ft 204kts
07-Jul-20 06:45 41.980600 -94.350698 78 19082ft 204kts
07-Jul-20 06:46 41.990485 -94.275859 79 19079ft 203kts
07-Jul-20 06:47 42.000299 -94.201128 79 19075ft 203kts
07-Jul-20 06:48 42.010110 -94.126026 79 19070ft 204kts
07-Jul-20 06:49 42.019865 -94.050965 79 19064ft 204kts
07-Jul-20 06:50 42.029575 -93.975866 79 19060ft 204kts
07-Jul-20 06:51 42.039265 -93.900492 79 19057ft 204kts
07-Jul-20 06:52 42.048868 -93.825402 79 19055ft 204kts
07-Jul-20 06:53 42.058450 -93.750073 79 19061ft 204kts
07-Jul-20 06:54 42.067955 -93.674928 79 19067ft 204kts
07-Jul-20 06:55 42.077449 -93.599534 79 19073ft 204kts
07-Jul-20 06:56 42.086896 -93.524023 79 19074ft 204kts
07-Jul-20 06:57 42.096285 -93.448482 79 19074ft 205kts
07-Jul-20 06:58 42.105606 -93.373096 79 19074ft 205kts
07-Jul-20 06:59 42.114868 -93.297722 79 19070ft 204kts
07-Jul-20 07:00 42.124120 -93.222007 79 19067ft 204kts
07-Jul-20 07:01 42.133307 -93.146387 79 19064ft 204kts
07-Jul-20 07:02 42.142425 -93.070962 79 19063ft 204kts
07-Jul-20 07:03 42.151482 -92.995574 79 19063ft 203kts
07-Jul-20 07:04 42.160456 -92.920642 79 19063ft 202kts
07-Jul-20 07:05 42.169327 -92.845955 79 19063ft 201kts
07-Jul-20 07:06 42.178095 -92.771643 80 19064ft 201kts
07-Jul-20 07:07 42.186829 -92.697228 80 19064ft 201kts
07-Jul-20 07:08 42.195528 -92.622690 80 19063ft 201kts
07-Jul-20 07:09 42.204149 -92.548365 80 19058ft 201kts
07-Jul-20 07:10 42.212744 -92.473851 80 19053ft 201kts
07-Jul-20 07:11 42.221321 -92.399014 80 19047ft 201kts
07-Jul-20 07:12 42.229793 -92.324687 80 19052ft 201kts
07-Jul-20 07:13 42.238235 -92.250150 80 19060ft 200kts
07-Jul-20 07:14 42.246606 -92.175841 80 19069ft 200kts
07-Jul-20 07:15 42.254946 -92.101375 80 19072ft 200kts
07-Jul-20 07:16 42.263248 -92.026784 80 19072ft 201kts
07-Jul-20 07:17 42.271508 -91.952120 80 19073ft 201kts
07-Jul-20 07:18 42.279690 -91.877712 80 19073ft 201kts
07-Jul-20 07:19 42.287876 -91.802798 80 19073ft 201kts
07-Jul-20 07:20 42.295849 -91.729280 80 19069ft 189kts
07-Jul-20 07:21 42.303158 -91.661502 80 19072ft 178kts
07-Jul-20 07:22 42.310190 -91.596011 80 19073ft 174kts
07-Jul-20 07:23 42.317036 -91.531872 80 19073ft 172kts
07-Jul-20 07:24 42.323856 -91.467635 80 19074ft 172kts
07-Jul-20 07:25 42.330627 -91.403454 80 19075ft 173kts
07-Jul-20 07:26 42.337404 -91.338993 81 19072ft 174kts
07-Jul-20 07:27 42.344167 -91.274233 81 19072ft 173kts
07-Jul-20 07:28 42.350881 -91.209592 81 19072ft 173kts
07-Jul-20 07:29 42.357558 -91.145023 81 19074ft 173kts
07-Jul-20 07:30 42.364150 -91.080816 81 19076ft 172kts
07-Jul-20 07:31 42.370687 -91.016791 81 19078ft 171kts
07-Jul-20 07:32 42.377158 -90.953114 81 19080ft 170kts
07-Jul-20 07:33 42.383561 -90.889685 81 19081ft 170kts
07-Jul-20 07:34 42.389869 -90.826449 81 19082ft 169kts
07-Jul-20 07:35 42.396204 -90.763243 81 19082ft 169kts
07-Jul-20 07:36 42.406238 -90.701618 66 19085ft 169kts
07-Jul-20 07:37 42.423569 -90.640926 67 19089ft 185kts
07-Jul-20 07:38 42.443059 -90.572782 67 19084ft 199kts
07-Jul-20 07:39 42.463298 -90.501912 67 19083ft 203kts
07-Jul-20 07:40 42.483688 -90.430317 67 19083ft 204kts
07-Jul-20 07:41 42.504181 -90.358162 67 19083ft 205kts
07-Jul-20 07:42 42.524364 -90.286825 68 18954ft 200kts
07-Jul-20 07:43 42.544089 -90.216396 67 17751ft 200kts
07-Jul-20 07:44 42.563829 -90.146884 68 16820ft 196kts
07-Jul-20 07:45 42.583003 -90.078670 68 15957ft 193kts
07-Jul-20 07:46 42.601699 -90.011924 68 15114ft 184kts
07-Jul-20 07:47 42.619413 -89.948526 68 14320ft 177kts
07-Jul-20 07:48 42.636611 -89.886817 68 13548ft 173kts
07-Jul-20 07:49 42.653406 -89.826405 68 12793ft 171kts
07-Jul-20 07:50 42.670030 -89.766466 68 12043ft 169kts
07-Jul-20 07:51 42.686369 -89.707404 68 11305ft 167kts
07-Jul-20 07:52 42.702632 -89.648472 68 10569ft 166kts
07-Jul-20 07:53 42.718624 -89.590138 68 9842ft 164kts
07-Jul-20 07:54 42.734574 -89.532043 68 9117ft 163kts
07-Jul-20 07:55 42.750403 -89.474277 68 8398ft 162kts
07-Jul-20 07:56 42.766039 -89.417092 68 7684ft 161kts
07-Jul-20 07:57 42.793013 -89.369556 42 6934ft 159kts
07-Jul-20 07:58 42.824249 -89.327894 42 6228ft 156kts
07-Jul-20 07:59 42.854840 -89.287073 42 5546ft 152kts
07-Jul-20 08:00 42.884791 -89.247051 42 4881ft 150kts
07-Jul-20 08:01 42.914369 -89.207465 42 4225ft 148kts
07-Jul-20 08:02 42.943689 -89.168166 41 3573ft 147kts
07-Jul-20 08:03 42.974197 -89.133760 355 3022ft 134kts
07-Jul-20 08:04 43.003513 -89.155507 316 3001ft 118kts
07-Jul-20 08:05 43.028135 -89.186741 315 3004ft 132kts
07-Jul-20 08:06 43.055659 -89.222239 315 2994ft 141kts
07-Jul-20 08:07 43.086614 -89.262222 315 2224ft 151kts
07-Jul-20 08:08 43.113407 -89.296822 315 1516ft 99kts
07-Jul-20 08:09 43.130669 -89.319222 316 1057ft 81kts
07-Jul-20 08:10 43.142214 -89.333347 45 853ft 14kts
07-Jul-20 08:11 43.143783 -89.328482 91 854ft 10kts
07-Jul-20 08:12 43.142734 -89.327886 310 854ft 3kts
07-Jul-20 08:13 43.142982 -89.327900 356 854ft 0kts

Navigation Log

Ident Type
Flight plan parsing failed, navigation log unavailable